createdAt,value
2023-06-28T00:00:48.861Z,2.20
2023-06-28T00:03:14.743Z,1.95
2023-06-28T00:05:40.604Z,2.10
2023-06-28T00:08:06.451Z,2.40
2023-06-28T00:10:32.282Z,2.13
2023-06-28T00:12:58.399Z,3.20
2023-06-28T00:15:24.216Z,2.03
2023-06-28T00:17:50.056Z,2.10
2023-06-28T00:20:15.916Z,2.22
2023-06-28T00:22:41.910Z,2.22
2023-06-28T00:25:07.995Z,2.22
2023-06-28T00:27:33.818Z,2.30
2023-06-28T00:29:59.646Z,2.28
2023-06-28T00:32:26.002Z,2.35
2023-06-28T00:34:52.015Z,2.10
2023-06-28T00:37:17.982Z,2.17
2023-06-28T00:39:43.914Z,2.50
2023-06-28T00:42:10.851Z,2.13
2023-06-28T00:44:37.314Z,2.55
2023-06-28T00:47:04.137Z,1.70
2023-06-28T00:49:35.381Z,2.03
2023-06-28T00:52:01.640Z,1.70
2023-06-28T00:54:27.463Z,2.28
2023-06-28T00:56:53.450Z,2.58
2023-06-28T00:59:19.520Z,2.67
2023-06-28T01:01:45.412Z,2.10
2023-06-28T01:04:14.077Z,2.25
2023-06-28T01:06:41.467Z,3.65
2023-06-28T01:09:10.889Z,2.50
2023-06-28T01:11:37.304Z,2.40
2023-06-28T01:14:03.900Z,2.33
2023-06-28T01:16:30.089Z,3.13
2023-06-28T01:18:55.927Z,2.67
2023-06-28T01:21:23.205Z,2.08
2023-06-28T01:23:49.379Z,2.45
2023-06-28T01:26:16.640Z,2.45
2023-06-28T01:28:43.263Z,3.08
2023-06-28T01:31:09.281Z,2.92
2023-06-28T01:33:35.226Z,3.40
2023-06-28T01:36:01.127Z,3.65
2023-06-28T01:38:28.349Z,2.00
2023-06-28T01:40:54.676Z,2.70
2023-06-28T01:43:20.835Z,2.30
2023-06-28T01:45:47.092Z,2.17
2023-06-28T01:48:13.285Z,2.67
2023-06-28T01:50:39.131Z,3.60
2023-06-28T01:53:06.273Z,2.42
2023-06-28T01:55:32.694Z,2.22
2023-06-28T01:57:58.613Z,2.13
2023-06-28T02:00:24.615Z,2.53
2023-06-28T02:02:51.320Z,2.58
2023-06-28T02:05:17.404Z,2.08
2023-06-28T02:07:43.594Z,2.25
2023-06-28T02:10:10.050Z,3.53
2023-06-28T02:12:35.878Z,3.60
2023-06-28T02:15:03.012Z,3.03
2023-06-28T02:17:31.880Z,2.22
2023-06-28T02:19:58.119Z,3.08
2023-06-28T02:22:23.938Z,2.78
2023-06-28T02:24:49.715Z,2.17
2023-06-28T02:27:15.529Z,2.67
2023-06-28T02:29:41.354Z,2.60
2023-06-28T02:32:07.182Z,3.25
2023-06-28T02:34:34.363Z,2.65
2023-06-28T02:37:00.188Z,3.00
2023-06-28T02:39:26.018Z,2.83
2023-06-28T02:41:51.972Z,2.65
2023-06-28T02:44:17.945Z,3.05
2023-06-28T02:46:43.840Z,2.58
2023-06-28T02:49:09.788Z,3.20
2023-06-28T02:51:35.652Z,2.92
2023-06-28T02:54:01.665Z,2.75
2023-06-28T02:56:28.494Z,3.28
2023-06-28T02:58:54.334Z,3.15
2023-06-28T03:01:23.271Z,3.00
2023-06-28T03:03:49.290Z,3.03
2023-06-28T03:06:15.374Z,3.45
2023-06-28T03:08:41.665Z,2.83
2023-06-28T03:11:07.823Z,3.05
2023-06-28T03:13:33.915Z,2.80
2023-06-28T03:16:00.141Z,1.92
2023-06-28T03:18:26.371Z,2.65
2023-06-28T03:20:52.229Z,3.03
2023-06-28T03:23:18.076Z,2.25
2023-06-28T03:25:44.074Z,2.55
2023-06-28T03:28:10.424Z,2.63
2023-06-28T03:30:37.019Z,2.70
2023-06-28T03:33:03.742Z,2.22
2023-06-28T03:35:29.707Z,3.10
2023-06-28T03:37:56.442Z,2.47
2023-06-28T03:40:22.609Z,2.35
2023-06-28T03:42:48.663Z,2.42
2023-06-28T03:45:17.319Z,2.40
2023-06-28T03:47:43.713Z,2.47
2023-06-28T03:50:09.900Z,2.50
2023-06-28T03:52:36.298Z,2.40
2023-06-28T03:55:03.445Z,3.05
2023-06-28T03:57:29.467Z,2.75
2023-06-28T03:59:55.767Z,2.78
2023-06-28T04:02:21.961Z,3.25
2023-06-28T04:04:47.924Z,2.80
2023-06-28T04:07:17.103Z,2.08
2023-06-28T04:09:43.725Z,1.92
2023-06-28T04:12:10.051Z,2.13
2023-06-28T04:14:36.752Z,2.63
2023-06-28T04:17:02.835Z,2.72
2023-06-28T04:19:28.635Z,2.15
2023-06-28T04:21:55.127Z,1.73
2023-06-28T04:24:21.037Z,2.65
2023-06-28T04:26:46.851Z,2.95
2023-06-28T04:29:13.957Z,2.67
2023-06-28T04:31:39.791Z,2.42
2023-06-28T04:34:05.901Z,2.70
2023-06-28T04:36:31.732Z,2.30
2023-06-28T04:38:57.987Z,2.25
2023-06-28T04:41:25.961Z,2.58
2023-06-28T04:43:55.989Z,2.28
2023-06-28T04:46:23.370Z,2.08
2023-06-28T04:48:49.419Z,2.15
2023-06-28T04:51:15.237Z,2.42
2023-06-28T04:53:41.012Z,2.33
2023-06-28T04:56:06.908Z,1.92
2023-06-28T04:58:34.078Z,2.38
2023-06-28T05:01:03.693Z,2.08
2023-06-28T05:03:29.696Z,2.72
2023-06-28T05:05:55.721Z,2.75
2023-06-28T05:08:22.186Z,2.38
2023-06-28T05:10:54.696Z,1.70
2023-06-28T05:13:22.157Z,1.88
2023-06-28T05:15:48.077Z,1.58
2023-06-28T05:18:14.047Z,1.73
2023-06-28T05:20:40.233Z,1.35
2023-06-28T05:23:10.722Z,1.58
2023-06-28T05:25:37.525Z,1.48
2023-06-28T05:28:04.345Z,1.50
2023-06-28T05:30:30.419Z,1.95
2023-06-28T05:32:56.437Z,1.33
2023-06-28T05:35:22.622Z,1.83
2023-06-28T05:37:48.791Z,1.17
2023-06-28T05:40:14.910Z,2.00
2023-06-28T05:42:40.992Z,1.60
2023-06-28T05:45:07.176Z,1.80
2023-06-28T05:47:33.513Z,1.67
2023-06-28T05:49:59.513Z,1.38
2023-06-28T05:52:26.928Z,1.75
2023-06-28T05:54:53.171Z,1.10
2023-06-28T05:57:19.515Z,1.60
2023-06-28T05:59:46.495Z,1.77
2023-06-28T06:02:12.547Z,1.60
2023-06-28T06:04:38.952Z,1.95
2023-06-28T06:07:05.365Z,1.25
2023-06-28T06:09:31.662Z,1.23
2023-06-28T06:11:57.833Z,2.55
2023-06-28T06:14:23.914Z,1.15
2023-06-28T06:16:50.082Z,1.27
2023-06-28T06:19:16.466Z,2.00
2023-06-28T06:21:42.867Z,1.63
2023-06-28T06:24:09.127Z,1.45
2023-06-28T06:26:35.736Z,1.10
2023-06-28T06:29:02.474Z,1.38
2023-06-28T06:31:29.190Z,1.52
2023-06-28T06:34:01.040Z,1.67
2023-06-28T06:36:30.254Z,1.33
2023-06-28T06:38:57.053Z,1.33
2023-06-28T06:41:25.251Z,1.25
2023-06-28T06:43:52.445Z,1.75
2023-06-28T06:46:20.759Z,1.40
2023-06-28T06:48:47.056Z,1.55
2023-06-28T06:51:13.171Z,1.58
2023-06-28T06:53:39.507Z,1.73
2023-06-28T06:56:05.608Z,1.08
2023-06-28T06:58:32.924Z,1.30
2023-06-28T07:00:59.762Z,1.40
2023-06-28T07:03:27.583Z,2.03
2023-06-28T07:05:55.339Z,1.15
2023-06-28T07:08:21.414Z,1.38
2023-06-28T07:11:16.230Z,1.70
2023-06-28T07:13:42.457Z,2.55
2023-06-28T07:16:08.523Z,1.10
2023-06-28T07:18:35.084Z,1.30
2023-06-28T07:21:01.359Z,1.50
2023-06-28T07:23:27.307Z,1.60
2023-06-28T07:25:53.239Z,1.20
2023-06-28T07:28:19.208Z,1.77
2023-06-28T07:31:03.130Z,1.65
2023-06-28T07:33:29.918Z,1.15
2023-06-28T07:35:56.070Z,1.52
2023-06-28T07:38:23.291Z,1.55
2023-06-28T07:40:50.237Z,1.13
2023-06-28T07:43:18.634Z,1.40
2023-06-28T07:45:46.619Z,0.85
2023-06-28T07:48:13.407Z,1.83
2023-06-28T07:50:39.425Z,1.40
2023-06-28T07:53:05.712Z,1.05
2023-06-28T07:55:31.674Z,1.55
2023-06-28T07:57:58.015Z,1.55
2023-06-28T08:00:25.102Z,2.47
2023-06-28T08:02:51.250Z,1.40
2023-06-28T08:05:17.241Z,1.15
2023-06-28T08:07:43.277Z,1.35
2023-06-28T08:10:09.583Z,1.25
2023-06-28T08:12:57.549Z,0.93
2023-06-28T08:15:24.755Z,1.17
2023-06-28T08:17:53.194Z,1.90
2023-06-28T08:20:19.630Z,1.23
2023-06-28T08:22:45.743Z,1.00
2023-06-28T08:25:11.781Z,0.93
2023-06-28T08:27:37.947Z,1.00
2023-06-28T08:30:04.372Z,1.15
2023-06-28T08:32:30.665Z,0.80
2023-06-28T08:34:56.683Z,0.73
2023-06-28T08:37:22.647Z,1.25
2023-06-28T08:39:48.748Z,1.30
2023-06-28T08:42:48.952Z,1.10
2023-06-28T08:45:15.144Z,0.95
2023-06-28T08:47:42.717Z,1.88
2023-06-28T08:50:09.932Z,1.05
2023-06-28T08:52:36.954Z,1.33
2023-06-28T08:57:31.698Z,0.90
2023-06-28T08:59:59.374Z,0.90
2023-06-28T09:02:27.006Z,1.23
2023-06-28T09:04:53.710Z,1.20
2023-06-28T09:07:21.959Z,1.08
2023-06-28T09:09:52.062Z,1.00
2023-06-28T09:12:34.157Z,0.95
2023-06-28T09:15:00.173Z,0.77
2023-06-28T09:17:26.229Z,0.75
2023-06-28T09:19:53.052Z,2.20
2023-06-28T09:22:19.087Z,1.60
2023-06-28T09:24:49.090Z,0.88
2023-06-28T09:27:16.032Z,0.88
2023-06-28T09:29:42.067Z,1.10
2023-06-28T09:32:08.339Z,0.60
2023-06-28T09:34:36.114Z,0.85
2023-06-28T09:37:03.865Z,1.05
2023-06-28T09:39:38.323Z,1.55
2023-06-28T09:42:13.991Z,0.90
2023-06-28T09:44:41.284Z,1.80
2023-06-28T09:47:07.207Z,0.90
2023-06-28T09:49:33.635Z,0.85
2023-06-28T09:52:07.646Z,1.00
2023-06-28T09:54:34.695Z,2.15
2023-06-28T09:57:01.342Z,1.00
2023-06-28T09:59:35.047Z,1.20
2023-06-28T10:02:05.971Z,1.10
2023-06-28T10:04:34.054Z,1.10
2023-06-28T10:07:01.653Z,0.90
2023-06-28T10:09:38.407Z,0.88
2023-06-28T10:12:26.590Z,1.65
2023-06-28T10:15:23.428Z,0.80
2023-06-28T10:17:51.509Z,0.98
2023-06-28T10:20:27.076Z,0.95
2023-06-28T10:22:53.473Z,0.98
2023-06-28T10:25:20.058Z,0.90
2023-06-28T10:27:49.622Z,1.25
2023-06-28T10:30:15.552Z,1.35
2023-06-28T10:32:44.564Z,1.10
2023-06-28T10:35:10.913Z,1.27
2023-06-28T10:37:37.172Z,0.73
2023-06-28T10:40:05.487Z,1.05
2023-06-28T10:42:40.824Z,0.82
2023-06-28T10:45:10.433Z,1.13
2023-06-28T10:47:38.352Z,0.80
2023-06-28T10:50:05.355Z,1.13
2023-06-28T10:52:31.704Z,0.70
2023-06-28T10:54:57.737Z,1.30
2023-06-28T10:57:38.782Z,1.13
2023-06-28T11:00:28.930Z,1.25
2023-06-28T11:03:00.346Z,0.63
2023-06-28T11:11:09.015Z,0.88
2023-06-28T11:13:42.834Z,1.17
2023-06-28T11:16:08.912Z,0.80
2023-06-28T11:18:36.048Z,1.13
2023-06-28T11:21:06.300Z,1.30
2023-06-28T11:23:36.958Z,1.20
2023-06-28T11:26:04.305Z,0.88
2023-06-28T11:28:34.287Z,0.90
2023-06-28T11:31:14.126Z,1.13
2023-06-28T11:33:42.243Z,1.00
2023-06-28T11:36:09.526Z,0.90
2023-06-28T11:38:40.451Z,1.02
2023-06-28T11:41:06.777Z,0.93
2023-06-28T11:43:41.590Z,1.30
2023-06-28T11:46:12.092Z,0.93
2023-06-28T11:51:08.366Z,1.50
2023-06-28T11:53:34.463Z,1.55
2023-06-28T11:56:00.793Z,0.77
2023-06-28T11:58:31.123Z,0.95
2023-06-28T12:01:00.420Z,0.93
2023-06-28T12:03:37.291Z,0.93
2023-06-28T12:06:04.485Z,1.08
2023-06-28T12:08:37.632Z,1.30
2023-06-28T12:11:23.457Z,1.00
2023-06-28T12:13:50.265Z,0.90
2023-06-28T12:16:18.190Z,1.27
2023-06-28T12:19:02.324Z,1.10
2023-06-28T12:21:29.739Z,1.20
2023-06-28T12:24:14.940Z,0.98
2023-06-28T12:26:46.004Z,0.90
2023-06-28T12:29:12.728Z,1.23
2023-06-28T12:31:47.263Z,0.82
2023-06-28T12:34:20.638Z,1.20
2023-06-28T12:36:49.614Z,1.10
2023-06-28T12:39:21.153Z,1.13
2023-06-28T12:42:07.216Z,1.02
2023-06-28T12:44:50.433Z,1.20
2023-06-28T12:47:36.729Z,1.30
2023-06-28T12:50:04.434Z,1.10
2023-06-28T12:52:30.666Z,1.40
2023-06-28T12:54:59.012Z,0.90
2023-06-28T12:57:28.329Z,1.10
2023-06-28T12:59:54.595Z,1.30
2023-06-28T13:02:22.147Z,1.27
2023-06-28T13:04:50.342Z,1.15
2023-06-28T13:07:16.985Z,1.45
2023-06-28T13:09:46.513Z,1.08
2023-06-28T13:12:47.205Z,0.65
2023-06-28T13:17:53.802Z,1.15
2023-06-28T13:20:20.223Z,1.00
2023-06-28T13:22:46.359Z,0.80
2023-06-28T13:25:14.374Z,0.90
2023-06-28T13:27:40.444Z,1.20
2023-06-28T13:30:07.612Z,1.30
2023-06-28T13:32:33.856Z,0.90
2023-06-28T13:34:59.944Z,0.95
2023-06-28T13:37:28.776Z,0.90
2023-06-28T13:39:58.968Z,1.45
2023-06-28T13:42:31.294Z,1.17
2023-06-28T13:44:58.136Z,1.20
2023-06-28T13:47:24.608Z,0.85
2023-06-28T13:52:31.423Z,1.17
2023-06-28T13:54:57.526Z,0.95
2023-06-28T13:57:26.927Z,0.68
2023-06-28T14:00:02.317Z,1.00
2023-06-28T14:02:29.003Z,0.80
2023-06-28T14:04:55.588Z,1.15
2023-06-28T14:07:22.270Z,0.93
2023-06-28T14:09:48.720Z,1.10
2023-06-28T14:35:01.644Z,1.60
2023-06-28T14:40:09.039Z,0.80
2023-06-28T14:42:47.981Z,0.95
2023-06-28T14:45:17.649Z,1.73
2023-06-28T14:47:43.800Z,0.80
2023-06-28T14:50:13.076Z,0.90
2023-06-28T14:52:40.467Z,0.70
2023-06-28T14:55:07.310Z,1.10
2023-06-28T14:57:33.692Z,0.88
2023-06-28T14:59:59.874Z,1.15
2023-06-28T15:02:27.858Z,1.00
2023-06-28T15:04:54.163Z,1.00
2023-06-28T15:07:20.297Z,1.25
2023-06-28T15:09:46.926Z,1.10
2023-06-28T15:12:45.421Z,1.08
2023-06-28T15:15:12.094Z,1.15
2023-06-28T15:17:39.517Z,1.15
2023-06-28T15:20:09.986Z,1.05
2023-06-28T15:22:36.840Z,1.00
2023-06-28T15:25:03.527Z,1.13
2023-06-28T15:27:32.228Z,0.98
2023-06-28T15:29:58.761Z,1.30
2023-06-28T15:32:24.953Z,0.88
2023-06-28T15:34:51.944Z,1.30
2023-06-28T15:37:18.101Z,0.75
2023-06-28T15:39:44.628Z,0.90
2023-06-28T15:42:20.600Z,1.00
2023-06-28T15:44:46.613Z,0.73
2023-06-28T15:47:12.706Z,0.88
2023-06-28T15:49:38.930Z,1.17
2023-06-28T15:52:05.607Z,0.70
2023-06-28T15:54:31.668Z,0.98
2023-06-28T15:57:01.199Z,0.88
2023-06-28T15:59:30.244Z,1.10
2023-06-28T16:02:01.014Z,1.00
2023-06-28T16:04:29.997Z,0.95
2023-06-28T16:06:56.329Z,1.23
2023-06-28T16:09:25.173Z,0.95
2023-06-28T16:12:19.686Z,0.93
2023-06-28T16:14:45.747Z,1.17
2023-06-28T16:17:12.091Z,0.75
2023-06-28T16:19:38.625Z,0.80
2023-06-28T16:22:05.196Z,0.90
2023-06-28T16:24:31.578Z,1.50
2023-06-28T16:26:57.681Z,1.00
2023-06-28T16:29:23.942Z,1.00
2023-06-28T16:31:50.270Z,0.80
2023-06-28T16:34:16.383Z,0.82
2023-06-28T16:36:47.929Z,1.30
2023-06-28T16:39:14.631Z,1.17
2023-06-28T16:41:55.028Z,1.48
2023-06-28T16:44:21.013Z,1.52
2023-06-28T16:46:49.010Z,1.27
2023-06-28T16:49:16.490Z,0.93
2023-06-28T16:51:42.804Z,0.80
2023-06-28T16:54:09.414Z,0.80
2023-06-28T16:56:35.837Z,0.88
2023-06-28T16:59:01.725Z,1.17
2023-06-28T17:01:32.347Z,0.52
2023-06-28T17:03:58.384Z,1.05
2023-06-28T17:06:24.513Z,0.98
2023-06-28T17:08:50.420Z,0.80
2023-06-28T17:11:19.674Z,1.50
2023-06-28T17:13:46.526Z,1.02
2023-06-28T17:16:13.809Z,0.93
2023-06-28T17:18:40.163Z,0.88
2023-06-28T17:21:06.849Z,1.35
2023-06-28T17:23:32.962Z,1.00
2023-06-28T17:25:59.816Z,0.90
2023-06-28T17:28:25.820Z,1.20
2023-06-28T17:30:56.383Z,0.80
2023-06-28T17:33:23.244Z,0.93
2023-06-28T17:35:49.247Z,1.30
2023-06-28T17:38:15.293Z,1.10
2023-06-28T17:40:44.649Z,1.50
2023-06-28T17:43:10.806Z,0.80
2023-06-28T17:45:37.212Z,0.80
2023-06-28T17:48:03.505Z,0.88
2023-06-28T17:50:29.526Z,1.10
2023-06-28T17:52:56.956Z,1.02
2023-06-28T17:55:23.351Z,0.90
2023-06-28T17:57:49.444Z,1.40
2023-06-28T18:00:15.761Z,1.42
2023-06-28T18:02:41.917Z,1.02
2023-06-28T18:05:09.168Z,0.93
2023-06-28T18:07:35.838Z,0.70
2023-06-28T18:10:04.733Z,0.90
2023-06-28T18:13:06.210Z,1.02
2023-06-28T18:15:32.133Z,1.05
2023-06-28T18:17:58.364Z,1.08
2023-06-28T18:20:24.488Z,0.68
2023-06-28T18:22:50.536Z,0.80
2023-06-28T18:25:16.456Z,1.30
2023-06-28T18:27:42.672Z,1.52
2023-06-28T18:30:09.288Z,0.90
2023-06-28T18:32:35.452Z,0.95
2023-06-28T18:35:02.229Z,1.00
2023-06-28T18:37:28.470Z,1.02
2023-06-28T18:39:55.206Z,1.55
2023-06-28T18:42:21.247Z,1.02
2023-06-28T18:44:48.752Z,1.20
2023-06-28T18:47:14.852Z,1.20
2023-06-28T18:49:40.828Z,1.02
2023-06-28T18:52:06.860Z,1.48
2023-06-28T18:54:32.837Z,1.02
2023-06-28T18:56:58.745Z,1.13
2023-06-28T18:59:24.784Z,1.15
2023-06-28T19:01:51.056Z,1.02
2023-06-28T19:04:17.068Z,0.95
2023-06-28T19:06:42.928Z,1.00
2023-06-28T19:09:09.173Z,1.13
2023-06-28T19:11:53.584Z,1.35
2023-06-28T19:14:19.613Z,0.90
2023-06-28T19:16:45.522Z,1.20
2023-06-28T19:19:11.386Z,1.20
2023-06-28T19:21:37.308Z,1.15
2023-06-28T19:24:03.254Z,1.13
2023-06-28T19:26:29.133Z,1.00
2023-06-28T19:28:55.245Z,1.70
2023-06-28T19:31:21.440Z,1.33
2023-06-28T19:33:48.355Z,1.20
2023-06-28T19:36:14.259Z,1.50
2023-06-28T19:38:40.247Z,1.70
2023-06-28T19:41:09.395Z,1.52
2023-06-28T19:43:35.539Z,1.70
2023-06-28T19:46:04.515Z,1.30
2023-06-28T19:48:33.824Z,1.38
2023-06-28T19:51:00.914Z,1.30
2023-06-28T19:53:27.236Z,1.17
2023-06-28T19:55:53.262Z,1.63
2023-06-28T19:58:19.185Z,3.05
2023-06-28T20:00:45.437Z,1.30
2023-06-28T20:03:11.597Z,1.58
2023-06-28T20:05:38.591Z,1.30
2023-06-28T20:08:06.328Z,1.55
2023-06-28T20:10:32.588Z,1.45
2023-06-28T20:13:03.954Z,1.20
2023-06-28T20:15:30.172Z,1.40
2023-06-28T20:17:56.219Z,1.80
2023-06-28T20:20:22.150Z,1.42
2023-06-28T20:22:48.155Z,1.98
2023-06-28T20:25:14.293Z,1.50
2023-06-28T20:27:40.328Z,1.95
2023-06-28T20:30:06.812Z,1.42
2023-06-28T20:32:33.276Z,1.58
2023-06-28T20:35:00.196Z,2.25
2023-06-28T20:37:26.109Z,1.58
2023-06-28T20:39:53.301Z,2.05
2023-06-28T20:42:29.017Z,2.03
2023-06-28T20:44:55.793Z,1.95
2023-06-28T20:47:27.834Z,1.92
2023-06-28T20:49:57.564Z,1.80
2023-06-28T20:52:23.581Z,1.90
2023-06-28T20:54:50.432Z,1.95
2023-06-28T20:57:16.872Z,1.48
2023-06-28T20:59:42.913Z,2.45
2023-06-28T21:02:08.940Z,2.58
2023-06-28T21:04:34.926Z,1.75
2023-06-28T21:07:01.408Z,2.83
2023-06-28T21:09:27.476Z,2.10
2023-06-28T21:11:59.789Z,2.03
2023-06-28T21:14:25.978Z,2.13
2023-06-28T21:16:51.835Z,2.33
2023-06-28T21:19:17.643Z,1.83
2023-06-28T21:21:44.049Z,2.10
2023-06-28T21:24:10.154Z,2.10
2023-06-28T21:26:36.016Z,1.95
2023-06-28T21:29:01.835Z,2.13
2023-06-28T21:31:28.052Z,2.22
2023-06-28T21:33:56.132Z,1.92
2023-06-28T21:36:23.443Z,2.88
2023-06-28T21:38:50.710Z,2.30
2023-06-28T21:41:16.961Z,2.53
2023-06-28T21:43:42.771Z,2.33
2023-06-28T21:46:09.012Z,1.90
2023-06-28T21:48:34.951Z,2.25
2023-06-28T21:51:00.753Z,2.05
2023-06-28T21:53:26.623Z,1.83
2023-06-28T21:55:52.464Z,1.77
2023-06-28T21:58:18.617Z,1.80
2023-06-28T22:00:44.467Z,1.90
2023-06-28T22:03:12.558Z,2.42
2023-06-28T22:05:38.849Z,2.65
2023-06-28T22:08:04.900Z,2.38
2023-06-28T22:10:30.750Z,2.25
2023-06-28T22:12:57.593Z,2.55
2023-06-28T22:15:26.894Z,2.67
2023-06-28T22:17:52.761Z,2.70
2023-06-28T22:20:18.569Z,2.88
2023-06-28T22:22:44.449Z,2.80
2023-06-28T22:25:10.324Z,3.08
2023-06-28T22:27:36.125Z,3.08
2023-06-28T22:30:02.260Z,3.33
2023-06-28T22:32:28.095Z,3.85
2023-06-28T22:34:54.086Z,2.63
2023-06-28T22:37:19.879Z,3.00
2023-06-28T22:39:45.807Z,3.10
2023-06-28T22:42:11.946Z,3.53
2023-06-28T22:44:37.885Z,3.47
2023-06-28T22:47:04.074Z,3.13
2023-06-28T22:49:32.918Z,3.20
2023-06-28T22:51:59.505Z,3.15
2023-06-28T22:54:29.555Z,3.50
2023-06-28T22:56:55.475Z,2.72
2023-06-28T22:59:24.706Z,3.45
2023-06-28T23:01:50.965Z,3.85
2023-06-28T23:04:17.054Z,2.97
2023-06-28T23:06:42.954Z,3.03
2023-06-28T23:09:09.608Z,3.35
2023-06-28T23:11:35.683Z,3.28
2023-06-28T23:14:01.681Z,2.67
2023-06-28T23:16:27.553Z,2.90
2023-06-28T23:18:57.743Z,3.35
2023-06-28T23:21:24.144Z,3.75
2023-06-28T23:23:53.024Z,3.58
2023-06-28T23:26:19.078Z,3.03
2023-06-28T23:28:45.055Z,4.15
2023-06-28T23:31:11.083Z,3.30
2023-06-28T23:33:42.212Z,3.75
2023-06-28T23:36:09.162Z,2.97
2023-06-28T23:38:35.136Z,2.90
2023-06-28T23:41:02.875Z,3.90
2023-06-28T23:43:30.080Z,3.80
2023-06-28T23:45:56.268Z,5.65
2023-06-28T23:48:25.432Z,3.50
2023-06-28T23:50:55.215Z,3.15
2023-06-28T23:53:22.147Z,3.83
2023-06-28T23:55:48.495Z,3.90
2023-06-28T23:58:14.464Z,3.78
